Time;durP1;ratioP1;P1;durP2;ratioP2;P2;SDS_P1;SDS_P2;PMS_P1;PMS_P2;Temp;Humidity;BMP_temperature;BMP_pressure;BME280_temperature;BME280_humidity;BME280_pressure;Samples;Min_cycle;Max_cycle;Signal;HPM_P1;HPM_P2
2021/01/19 00:00:41;;;;;;;0.60;0.60;;;5.40;99.90;;;5.83;100.00;-15630.50;5006476;28;20524;-71
2021/01/19 00:03:08;;;;;;;0.60;0.57;;;5.40;99.90;;;5.97;100.00;-15789.94;5009866;28;20833;-71
2021/01/19 00:05:35;;;;;;;0.60;0.50;;;5.50;99.90;;;6.00;100.00;-16081.84;5012476;28;20850;-71
2021/01/19 00:08:02;;;;;;;0.63;0.60;;;5.50;99.90;;;5.93;100.00;-16740.06;5012700;28;20799;-71
2021/01/19 00:10:29;;;;;;;0.60;0.60;;;5.40;99.90;;;5.93;100.00;-16981.47;5000160;28;20445;-71
2021/01/19 00:12:57;;;;;;;0.60;0.60;;;5.40;99.90;;;5.95;100.00;-17340.28;5008790;28;20476;-70
2021/01/19 00:15:24;;;;;;;0.60;0.60;;;5.50;99.90;;;6.01;100.00;-17700.06;5005939;28;20827;-71
2021/01/19 00:17:51;;;;;;;0.60;0.50;;;5.50;99.90;;;6.03;100.00;-17884.69;5015757;28;20493;-71
2021/01/19 00:20:18;;;;;;;0.60;0.50;;;5.50;99.90;;;6.08;100.00;-17885.59;5015765;28;20487;-71
2021/01/19 00:22:45;;;;;;;0.60;0.50;;;5.50;99.90;;;6.04;100.00;-18424.75;5015426;28;20448;-71
2021/01/19 00:25:12;;;;;;;0.60;0.60;;;5.50;99.90;;;6.17;100.00;-18701.47;5007702;28;21842;-70
2021/01/19 00:27:39;;;;;;;0.60;0.50;;;5.60;99.90;;;6.13;100.00;-19240.50;5014843;28;20469;-71
2021/01/19 00:30:08;;;;;;;0.60;0.50;;;5.70;99.90;;;6.22;100.00;-19528.91;5012523;28;20520;-71
2021/01/19 00:32:36;;;;;;;0.60;0.50;;;5.70;99.90;;;6.14;100.00;-19947.09;5012394;28;20540;-71
2021/01/19 00:35:04;;;;;;;0.60;0.53;;;5.70;99.90;;;6.21;100.00;-20068.47;5012334;28;20915;-71
2021/01/19 00:37:31;;;;;;;0.60;0.50;;;5.70;99.90;;;6.17;100.00;-20293.75;5016212;28;20465;-71
2021/01/19 00:39:57;;;;;;;0.60;0.50;;;5.70;99.90;;;6.15;100.00;-20695.94;5015164;28;20469;-71
2021/01/19 00:42:24;;;;;;;0.60;0.60;;;5.70;99.90;;;6.26;100.00;-20793.63;5015807;28;20540;-71
2021/01/19 00:44:51;;;;;;;0.60;0.50;;;5.80;99.90;;;6.23;100.00;-20851.72;5009121;28;20455;-71
2021/01/19 00:47:18;;;;;;;0.60;0.60;;;5.80;99.90;;;6.28;100.00;-20853.25;5009281;28;20504;-71
2021/01/19 00:49:46;;;;;;;0.60;0.50;;;5.80;99.90;;;6.23;100.00;-20851.88;5015737;28;20499;-71
2021/01/19 00:52:13;;;;;;;0.70;0.60;;;5.80;99.90;;;6.31;100.00;-20853.81;5014992;28;20437;-71
2021/01/19 00:54:40;;;;;;;0.60;0.50;;;5.80;99.90;;;6.24;100.00;-20852.16;5030569;28;20449;-71
2021/01/19 00:57:09;;;;;;;0.60;0.50;;;5.80;99.90;;;6.28;100.00;-20853.25;5029957;28;20453;-71
2021/01/19 00:59:39;;;;;;;0.60;0.60;;;5.80;99.90;;;6.36;100.00;-20855.22;5013964;28;20996;-71
2021/01/19 01:02:06;;;;;;;0.60;0.60;;;5.80;99.90;;;6.28;100.00;-20853.13;5028558;28;20454;-71
2021/01/19 01:04:33;;;;;;;0.60;0.60;;;5.80;99.90;;;6.38;100.00;-20855.91;5012673;28;20504;-71
2021/01/19 01:07:00;;;;;;;0.60;0.60;;;5.80;99.90;;;6.39;100.00;-20777.19;5012282;28;20526;-71
2021/01/19 01:09:27;;;;;;;0.60;0.60;;;5.90;99.90;;;6.51;100.00;-20618.66;5030289;28;20446;-72
2021/01/19 01:11:54;;;;;;;0.60;0.60;;;5.90;99.90;;;6.34;100.00;-20479.66;5014825;28;20482;-71
2021/01/19 01:14:21;;;;;;;0.60;0.60;;;5.90;99.90;;;6.24;100.00;-20086.69;5011546;28;20818;-71
2021/01/19 01:16:48;;;;;;;0.60;0.50;;;5.90;99.90;;;6.35;100.00;-19365.38;5014735;28;20993;-71
2021/01/19 01:19:15;;;;;;;0.60;0.50;;;5.80;99.90;;;6.26;100.00;-18873.00;5014000;28;20546;-69
2021/01/19 01:21:42;;;;;;;0.60;0.53;;;5.80;99.90;;;6.31;100.00;-18403.56;5015268;28;20455;-71
2021/01/19 01:24:10;;;;;;;0.60;0.60;;;5.90;99.90;;;6.25;100.00;-17297.09;5014912;28;20953;-71
2021/01/19 01:26:37;;;;;;;0.60;0.60;;;5.80;99.90;;;6.17;100.00;-16279.47;5013070;28;20461;-71
2021/01/19 01:29:04;;;;;;;0.70;0.60;;;5.80;99.90;;;6.19;100.00;-14748.00;5014612;28;20867;-70
2021/01/19 01:31:32;;;;;;;0.70;0.60;;;5.80;99.90;;;6.33;100.00;-12878.25;5012624;28;20445;-71
2021/01/19 01:33:58;;;;;;;0.60;0.60;;;5.80;99.90;;;6.14;100.00;-12135.19;5030038;28;20484;-70
2021/01/19 01:36:25;;;;;;;0.63;0.60;;;5.80;99.90;;;6.17;100.00;-10492.00;5001499;28;20470;-71
2021/01/19 01:38:52;;;;;;;0.60;0.60;;;5.80;99.90;;;6.18;100.00;-8875.09;5011289;28;20441;-71
2021/01/19 01:41:22;;;;;;;0.60;0.60;;;5.80;99.90;;;6.18;100.00;-6732.91;5012581;28;20532;-71
2021/01/19 01:43:50;;;;;;;0.60;0.50;;;5.70;99.90;;;6.11;100.00;-4914.06;5015108;28;20462;-71
2021/01/19 01:46:18;;;;;;;0.60;0.50;;;5.70;99.90;;;6.07;100.00;-2817.06;5013493;28;20469;-71
2021/01/19 01:48:48;;;;;;;0.60;0.60;;;5.70;99.90;;;6.12;100.00;-2469.41;5005018;28;20533;-71
2021/01/19 01:51:16;;;;;;;0.70;0.60;;;5.80;99.90;;;6.26;100.00;-953.00;5014149;28;20450;-71
2021/01/19 01:53:43;;;;;;;0.60;0.60;;;5.80;99.90;;;6.24;100.00;95.50;5010859;28;20438;-71
2021/01/19 01:56:11;;;;;;;0.60;0.50;;;5.80;99.90;;;6.21;100.00;3325.69;5015084;28;20437;-71
2021/01/19 01:58:40;;;;;;;0.70;0.70;;;5.80;99.90;;;6.23;100.00;4909.69;5004506;28;20465;-71
2021/01/19 02:01:07;;;;;;;0.60;0.60;;;5.70;99.90;;;6.23;100.00;6085.53;5010531;28;20434;-71
2021/01/19 02:03:34;;;;;;;0.60;0.60;;;5.70;99.90;;;6.23;100.00;7091.31;5013266;28;20846;-70
2021/01/19 02:06:01;;;;;;;0.60;0.60;;;5.70;99.90;;;6.27;100.00;7731.66;5027645;28;20561;-71
2021/01/19 02:08:53;;;;;;;0.70;0.70;;;5.80;99.90;;;6.21;100.00;7933.81;5013621;28;20527;-71
2021/01/19 02:11:35;;;;;;;0.70;0.60;;;5.80;99.90;;;6.07;100.00;10877.16;5014721;28;20434;-71
2021/01/19 02:14:12;;;;;;;0.67;0.60;;;5.70;99.90;;;6.00;100.00;11897.28;5006964;28;20465;-71
2021/01/19 02:17:05;;;;;;;0.70;0.60;;;5.70;99.90;;;6.08;100.00;13064.88;5007130;28;20975;-71
2021/01/19 02:20:29;;;;;;;0.70;0.60;;;5.70;99.90;;;6.02;100.00;14977.91;4998628;28;20964;-71
2021/01/19 02:23:17;;;;;;;0.60;0.50;;;5.70;99.90;;;6.12;100.00;15913.66;5011341;28;20524;-70
2021/01/19 02:26:55;;;;;;;0.70;0.60;;;5.70;99.90;;;6.03;100.00;14503.19;5012671;28;20491;-70
2021/01/19 02:30:07;;;;;;;0.60;0.50;;;5.70;99.90;;;6.03;100.00;15606.66;4982395;28;20958;-70
2021/01/19 02:33:00;;;;;;;0.60;0.50;;;5.60;99.90;;;5.99;100.00;17430.91;4997839;28;20943;-71
2021/01/19 02:35:37;;;;;;;0.70;0.60;;;5.60;99.90;;;5.90;100.00;18723.28;4994579;28;20525;-70
2021/01/19 02:38:17;;;;;;;0.70;0.60;;;5.50;99.90;;;5.93;100.00;19788.66;5013782;28;21049;-71
2021/01/19 02:40:47;;;;;;;0.60;0.60;;;5.50;99.90;;;5.76;100.00;19201.19;4998687;28;20422;-70
2021/01/19 02:43:20;;;;;;;0.60;0.50;;;5.50;99.90;;;5.74;100.00;22061.84;5009090;28;20479;-70
2021/01/19 02:45:48;;;;;;;0.90;0.90;;;5.40;99.90;;;5.77;100.00;23412.97;4996202;28;20917;-70
2021/01/19 02:48:16;;;;;;;0.70;0.60;;;5.40;99.90;;;5.71;100.00;24271.75;5027650;28;20453;-70
2021/01/19 02:50:43;;;;;;;0.60;0.60;;;5.30;99.90;;;5.67;100.00;26106.81;5004646;28;20449;-70
2021/01/19 02:53:12;;;;;;;0.63;0.57;;;5.30;99.90;;;5.69;100.00;27502.00;5013816;28;20422;-70
2021/01/19 02:55:40;;;;;;;0.60;0.60;;;5.30;99.90;;;5.65;100.00;28821.41;5012026;28;20484;-70
2021/01/19 02:58:22;;;;;;;0.70;0.60;;;5.20;99.90;;;5.66;100.00;30552.84;5029152;28;20504;-70
2021/01/19 03:01:05;;;;;;;0.70;0.60;;;5.30;99.90;;;5.69;100.00;31882.41;5001186;28;20881;-70
2021/01/19 03:03:36;;;;;;;0.63;0.60;;;5.20;99.90;;;5.65;100.00;33375.06;4995380;28;20497;-70
2021/01/19 03:06:08;;;;;;;0.70;0.60;;;5.20;99.90;;;5.66;100.00;37970.66;4993990;28;20854;-70
2021/01/19 03:08:37;;;;;;;0.60;0.50;;;5.10;99.90;;;5.56;100.00;41321.72;4994802;28;20488;-69
2021/01/19 03:11:06;;;;;;;0.60;0.50;;;5.00;99.90;;;5.64;100.00;42261.72;5010935;28;20503;-69
2021/01/19 03:13:33;;;;;;;0.63;0.60;;;5.10;99.90;;;5.66;100.00;42329.47;5008331;28;20489;-70
2021/01/19 03:16:08;;;;;;;0.60;0.50;;;5.10;99.90;;;5.66;100.00;41012.38;4997457;28;20525;-70
2021/01/19 03:18:38;;;;;;;0.70;0.50;;;5.20;99.90;;;5.78;100.00;41385.97;5010778;28;20485;-71
2021/01/19 03:21:06;;;;;;;0.63;0.60;;;5.20;99.90;;;5.80;100.00;40442.97;5011772;28;20438;-70
2021/01/19 03:23:35;;;;;;;0.70;0.50;;;5.20;99.90;;;5.84;100.00;38577.81;5008845;28;20426;-70
2021/01/19 03:26:04;;;;;;;0.60;0.60;;;5.30;99.90;;;5.76;100.00;40442.56;5012295;28;20454;-69
2021/01/19 03:28:33;;;;;;;0.60;0.50;;;5.30;99.90;;;5.73;100.00;44019.72;5011609;28;20461;-70
2021/01/19 03:31:01;;;;;;;0.70;0.60;;;5.20;99.90;;;5.90;100.00;45683.13;5019955;28;20493;-70
2021/01/19 03:33:29;;;;;;;0.70;0.60;;;5.20;99.90;;;5.75;100.00;46320.34;4993848;28;20445;-69
2021/01/19 03:35:57;;;;;;;0.70;0.57;;;5.20;99.90;;;5.82;100.00;49574.31;5009690;28;20474;-69
2021/01/19 03:38:24;;;;;;;0.70;0.60;;;5.20;99.90;;;5.93;100.00;49909.16;5011783;28;20500;-70
2021/01/19 03:40:51;;;;;;;0.70;0.60;;;5.20;99.90;;;5.84;100.00;50875.78;5010882;28;20528;-71
2021/01/19 03:43:18;;;;;;;0.60;0.50;;;5.20;99.90;;;5.76;100.00;53796.22;5013148;28;21093;-71
2021/01/19 03:45:46;;;;;;;0.60;0.50;;;5.20;99.90;;;5.82;100.00;53476.63;5021399;28;20523;-71
2021/01/19 03:48:12;;;;;;;0.63;0.57;;;5.20;99.90;;;5.93;100.00;53160.81;4993809;28;20426;-71
2021/01/19 03:50:40;;;;;;;0.67;0.60;;;5.20;99.90;;;5.86;100.00;55432.22;5000625;28;20847;-70
2021/01/19 03:53:08;;;;;;;0.70;0.60;;;5.20;99.90;;;6.02;100.00;55448.03;5017150;28;20840;-70
2021/01/19 03:55:35;;;;;;;0.70;0.60;;;5.30;99.90;;;5.99;100.00;55770.72;5016665;28;20426;-71
2021/01/19 03:58:02;;;;;;;0.63;0.60;;;5.30;99.90;;;6.08;100.00;55127.84;5016597;28;20962;-71
2021/01/19 04:00:31;;;;;;;0.60;0.50;;;5.30;99.90;;;6.02;100.00;58380.03;5009830;28;20966;-70
2021/01/19 04:02:58;;;;;;;0.70;0.60;;;5.30;99.90;;;6.05;100.00;58057.22;5013190;28;20453;-71
2021/01/19 04:05:25;;;;;;;0.60;0.50;;;5.30;99.90;;;6.14;100.00;57740.56;4997251;28;20430;-71
2021/01/19 04:07:52;;;;;;;0.70;0.63;;;5.40;99.90;;;6.16;100.00;58068.06;5024076;28;20430;-71
2021/01/19 04:10:20;;;;;;;0.63;0.57;;;5.40;99.90;;;6.18;100.00;60679.44;5016725;28;20442;-71
2021/01/19 04:12:47;;;;;;;0.60;0.60;;;5.40;99.90;;;6.17;100.00;63615.03;5014164;28;20925;-70
2021/01/19 04:15:14;;;;;;;0.70;0.60;;;5.40;99.90;;;6.29;100.00;65261.75;5016352;28;20462;-70
2021/01/19 04:17:41;;;;;;;0.70;0.60;;;5.40;99.90;;;6.08;100.00;66544.81;5005828;28;20446;-70
2021/01/19 04:20:10;;;;;;;0.60;0.60;;;5.40;99.90;;;6.22;100.00;68522.66;5005920;28;20446;-70
2021/01/19 04:22:37;;;;;;;0.70;0.60;;;5.40;99.90;;;6.07;100.00;69811.84;5015761;28;20500;-71
2021/01/19 04:25:06;;;;;;;0.70;0.60;;;5.40;99.90;;;6.03;100.00;72424.66;5002046;28;20553;-70
2021/01/19 04:27:34;;;;;;;0.70;0.60;;;5.40;99.90;;;6.14;100.00;77024.34;4996485;28;20458;-71
2021/01/19 04:30:07;;;;;;;0.70;0.60;;;5.30;99.90;;;6.12;100.00;77349.44;5009451;28;20475;-70
2021/01/19 04:32:35;;;;;;;0.70;0.60;;;5.30;99.90;;;6.10;100.00;79313.22;5017359;28;20486;-71
2021/01/19 04:35:03;;;;;;;0.70;0.67;;;5.30;99.90;;;6.03;100.00;80616.84;5010744;28;20454;-70
2021/01/19 04:37:30;;;;;;;0.70;0.60;;;5.30;99.90;;;6.01;100.00;81269.47;5016355;28;20417;-69
2021/01/19 04:39:57;;;;;;;0.60;0.60;;;5.30;99.90;;;6.03;100.00;81600.44;5015915;28;20495;-70
2021/01/19 04:42:24;;;;;;;0.60;0.60;;;5.30;99.90;;;6.03;100.00;80944.91;5015580;28;20453;-71
2021/01/19 04:44:52;;;;;;;0.60;0.60;;;5.30;99.90;;;6.01;100.00;80941.38;5009123;28;20564;-70
2021/01/19 04:47:20;;;;;;;0.60;0.50;;;5.30;99.90;;;6.01;100.00;85537.44;5009544;28;20453;-71
2021/01/19 04:49:51;;;;;;;0.60;0.60;;;5.30;99.90;;;5.95;100.00;86843.38;5011621;28;20500;-71
2021/01/19 04:52:21;;;;;;;0.60;0.50;;;5.30;99.90;;;5.96;100.00;88487.53;5015030;28;20417;-71
2021/01/19 04:55:04;;;;;;;0.70;0.60;;;5.30;99.90;;;6.00;100.00;87178.81;5015875;28;20926;-71
2021/01/19 04:57:35;;;;;;;0.60;0.50;;;5.40;99.90;;;5.96;100.00;87172.75;5015545;28;20816;-71
2021/01/19 05:00:09;;;;;;;0.60;0.50;;;5.30;99.90;;;6.01;100.00;88824.09;5007719;28;20508;-70
2021/01/19 05:03:35;;;;;;;0.60;0.60;;;5.30;99.90;;;6.08;100.00;89820.88;5010364;28;20525;-71
2021/01/19 05:06:27;;;;;;;0.60;0.50;;;5.30;99.90;;;5.91;100.00;90781.69;5002678;28;20498;-71
2021/01/19 05:08:58;;;;;;;1.73;1.03;;;5.30;99.90;;;5.93;100.00;93418.44;4996423;28;20473;-71
2021/01/19 05:11:30;;;;;;;0.60;0.50;;;5.30;99.90;;;5.93;100.00;92760.06;4998278;28;20509;-70
2021/01/19 05:14:00;;;;;;;0.60;0.60;;;5.30;99.90;;;6.00;100.00;94087.56;5003564;28;20449;-70
2021/01/19 05:16:31;;;;;;;0.70;0.60;;;5.40;99.90;;;5.90;100.00;93412.69;5006902;28;20794;-70
2021/01/19 05:19:00;;;;;;;0.60;0.60;;;5.40;99.90;;;5.93;100.00;94076.94;5015398;28;20430;-71
2021/01/19 05:21:27;;;;;;;0.60;0.60;;;5.40;99.90;;;5.96;100.00;95727.88;5021134;28;20518;-70
2021/01/19 05:23:55;;;;;;;0.60;0.50;;;5.30;99.90;;;5.90;100.00;96048.09;5015456;28;20446;-70
2021/01/19 05:26:23;;;;;;;0.60;0.60;;;5.30;99.90;;;5.84;100.00;98673.53;5014065;28;20457;-71
2021/01/19 05:28:53;;;;;;;0.60;0.50;;;5.20;99.90;;;5.89;100.00;101320.66;5014288;28;20643;-71
2021/01/19 05:31:28;;;;;;;0.60;0.50;;;5.20;99.90;;;5.85;100.00;102633.53;5006683;28;20446;-70
2021/01/19 05:34:13;;;;;;;0.60;0.50;;;5.20;99.90;;;5.82;100.00;102960.03;4995778;28;20924;-70
2021/01/19 05:36:44;;;;;;;0.60;0.50;;;5.20;99.90;;;5.76;100.00;102289.28;4994756;28;20426;-71
2021/01/19 05:39:15;;;;;;;0.70;0.60;;;5.20;99.90;;;5.84;100.00;101641.78;4996896;28;20493;-71
2021/01/19 05:41:44;;;;;;;0.70;0.60;;;5.20;99.90;;;5.87;100.00;99338.97;4995391;28;20779;-70
2021/01/19 05:44:14;;;;;;;0.60;0.60;;;5.30;99.90;;;5.96;100.00;98034.78;5009649;28;21044;-71
2021/01/19 05:46:49;;;;;;;0.60;0.60;;;5.30;99.90;;;5.93;100.00;97040.84;5003626;28;20880;-71
2021/01/19 05:49:21;;;;;;;0.60;0.60;;;5.30;99.90;;;5.97;100.00;96388.53;5027614;28;20473;-71
2021/01/19 05:51:50;;;;;;;0.60;0.60;;;5.20;99.90;;;5.93;100.00;95064.91;5013932;28;20989;-71
2021/01/19 05:54:26;;;;;;;0.60;0.50;;;5.30;99.90;;;5.89;100.00;93081.88;5002144;28;21001;-71
2021/01/19 05:57:19;;;;;;;0.97;0.87;;;5.40;99.90;;;5.95;100.00;92433.31;4995522;28;20903;-71
2021/01/19 05:59:52;;;;;;;0.60;0.50;;;5.40;99.90;;;5.91;100.00;91110.66;5003213;28;20477;-71
2021/01/19 06:02:22;;;;;;;0.60;0.50;;;5.40;99.90;;;5.94;100.00;89470.84;5013458;28;20496;-70
2021/01/19 06:04:50;;;;;;;0.60;0.60;;;5.50;99.90;;;5.98;100.00;89477.09;5013007;28;20488;-71
2021/01/19 06:07:20;;;;;;;0.60;0.50;;;5.40;99.90;;;5.96;100.00;87830.06;5003408;28;20493;-70
2021/01/19 06:09:48;;;;;;;0.60;0.60;;;5.50;99.90;;;6.02;100.00;85867.47;5005544;28;20451;-71
2021/01/19 06:12:16;;;;;;;0.70;0.60;;;5.50;99.90;;;6.04;100.00;85213.41;5004620;28;20446;-70
2021/01/19 06:14:48;;;;;;;0.60;0.60;;;5.50;99.90;;;5.91;100.00;84209.63;5013025;28;20462;-71
2021/01/19 06:17:20;;;;;;;0.60;0.50;;;5.50;99.90;;;5.98;100.00;83235.00;4995646;28;20477;-70
2021/01/19 06:19:50;;;;;;;0.60;0.50;;;5.50;99.90;;;6.04;100.00;81930.06;5006609;28;20504;-70
2021/01/19 06:22:22;;;;;;;0.60;0.60;;;5.50;99.90;;;5.92;100.00;79945.41;5012646;28;20512;-68
2021/01/19 06:24:52;;;;;;;0.60;0.60;;;5.50;99.90;;;5.94;100.00;79619.59;5010396;28;21025;-70
2021/01/19 06:27:29;;;;;;;0.60;0.50;;;5.50;99.90;;;5.97;100.00;77984.56;4979233;28;20474;-69
2021/01/19 06:30:12;;;;;;;0.60;0.50;;;5.40;99.90;;;5.96;100.00;75690.28;5015366;28;20473;-70
2021/01/19 06:32:47;;;;;;;0.60;0.50;;;5.50;99.90;;;5.95;100.00;74051.00;5011679;28;20448;-70
2021/01/19 06:35:17;;;;;;;0.60;0.60;;;5.50;99.90;;;6.00;100.00;73075.41;5027994;28;20824;-69
2021/01/19 06:37:47;;;;;;;0.60;0.57;;;5.50;99.90;;;5.98;100.00;70782.50;5013521;28;20434;-70
2021/01/19 06:40:17;;;;;;;0.60;0.50;;;5.50;99.90;;;6.00;100.00;68823.59;5011767;28;20496;-71
2021/01/19 06:42:56;;;;;;;0.60;0.60;;;5.60;99.90;;;5.90;100.00;66850.28;5011207;28;20985;-70
2021/01/19 06:45:25;;;;;;;0.60;0.50;;;5.50;99.90;;;6.01;100.00;65230.06;5009113;28;20982;-70
2021/01/19 06:47:53;;;;;;;0.60;0.60;;;5.60;99.90;;;6.03;100.00;62947.06;5018049;28;20514;-70
2021/01/19 06:50:23;;;;;;;0.60;0.60;;;5.60;99.90;;;6.03;100.00;61641.88;5011476;28;20541;-70
2021/01/19 06:53:13;;;;;;;0.60;0.50;;;5.70;99.90;;;6.03;100.00;60990.00;5013896;28;20442;-69
2021/01/19 06:55:56;;;;;;;0.60;0.60;;;5.60;99.90;;;6.02;100.00;59031.94;5014040;28;20925;-69
2021/01/19 06:58:58;;;;;;;0.60;0.50;;;5.70;99.90;;;5.98;100.00;58050.53;5012179;28;20551;-69
2021/01/19 07:01:27;;;;;;;0.60;0.50;;;5.60;99.90;;;5.97;100.00;57723.66;5006635;28;20963;-70
2021/01/19 07:04:06;;;;;;;0.60;0.60;;;5.60;99.90;;;6.04;100.00;56752.88;5009540;28;20844;-69
2021/01/19 07:07:05;;;;;;;0.60;0.60;;;5.70;99.90;;;6.09;100.00;56432.13;5010296;28;20469;-70
2021/01/19 07:10:13;;;;;;;0.60;0.50;;;5.70;99.90;;;6.08;100.00;55453.97;5012717;28;20438;-69
2021/01/19 07:12:57;;;;;;;0.60;0.50;;;5.70;99.90;;;6.15;100.00;56111.88;5019014;28;20783;-70
2021/01/19 07:16:05;;;;;;;0.60;0.50;;;5.60;99.90;;;6.13;100.00;55458.44;5006800;28;20477;-69
2021/01/19 07:19:05;;;;;;;0.60;0.60;;;5.50;99.90;;;6.02;100.00;55122.44;5013400;28;20434;-69
2021/01/19 07:22:12;;;;;;;0.63;0.60;;;5.50;99.90;;;6.00;100.00;55120.44;5009547;28;20799;-69
2021/01/19 07:24:45;;;;;;;0.70;0.70;;;5.60;99.90;;;6.01;100.00;55121.44;4999512;28;20465;-68
2021/01/19 07:27:18;;;;;;;0.60;0.60;;;5.60;99.90;;;5.88;100.00;55759.75;5010801;28;20563;-69
2021/01/19 07:29:47;;;;;;;0.60;0.60;;;5.50;99.90;;;5.97;100.00;56094.41;5011977;28;20502;-68
2021/01/19 07:32:23;;;;;;;0.80;0.80;;;5.50;99.90;;;5.87;100.00;55107.66;5008655;28;21115;-70
2021/01/19 07:34:51;;;;;;;0.60;0.50;;;5.50;99.90;;;5.95;100.00;55766.75;5013290;28;20513;-69
2021/01/19 07:37:30;;;;;;;0.60;0.60;;;5.50;99.90;;;5.88;100.00;55759.75;5006623;28;20433;-70
2021/01/19 07:39:57;;;;;;;0.60;0.60;;;5.50;99.90;;;5.96;100.00;56093.38;5010305;28;20934;-70
2021/01/19 07:42:24;;;;;;;0.60;0.50;;;5.50;99.90;;;5.87;100.00;55758.78;5009725;28;20942;-69
2021/01/19 07:44:57;;;;;;;0.60;0.50;;;5.50;99.90;;;5.87;100.00;56084.38;5009404;28;20492;-70
2021/01/19 07:47:35;;;;;;;0.60;0.50;;;5.50;99.90;;;5.87;100.00;55759.28;5008707;28;20535;-70
2021/01/19 07:50:06;;;;;;;0.60;0.50;;;5.50;99.90;;;5.85;100.00;56082.88;5011726;28;20499;-69
2021/01/19 07:52:39;;;;;;;0.60;0.50;;;5.50;99.90;;;5.89;100.00;56412.00;5011677;28;20440;-69
2021/01/19 07:55:18;;;;;;;0.60;0.50;;;5.50;99.90;;;5.88;100.00;56411.00;5010159;28;20430;-69
2021/01/19 07:57:48;;;;;;;0.60;0.50;;;5.50;99.90;;;5.89;100.00;56412.00;5011419;28;20461;-69
2021/01/19 08:00:22;;;;;;;0.60;0.60;;;5.50;99.90;;;5.89;100.00;56086.88;5026621;28;20464;-69
2021/01/19 08:02:49;;;;;;;0.60;0.50;;;5.50;99.90;;;5.85;100.00;56082.88;5011836;28;20441;-70
2021/01/19 08:05:27;;;;;;;0.70;0.70;;;5.50;99.90;;;5.81;100.00;55753.31;5012744;28;20430;-70
2021/01/19 08:07:56;;;;;;;0.60;0.50;;;5.50;99.90;;;5.80;100.00;56078.38;5010906;28;20457;-70
2021/01/19 08:10:25;;;;;;;0.60;0.50;;;5.40;99.90;;;5.74;100.00;55746.34;5012864;28;20436;-70
2021/01/19 08:12:55;;;;;;;0.70;0.63;;;5.40;99.90;;;5.74;100.00;55420.84;5010588;28;20796;-69
2021/01/19 08:15:27;;;;;;;0.60;0.60;;;5.40;99.90;;;5.76;100.00;54446.97;5005539;28;20467;-70
2021/01/19 08:17:56;;;;;;;0.60;0.50;;;5.50;99.90;;;5.76;100.00;53470.91;5009815;28;20430;-70
2021/01/19 08:20:28;;;;;;;0.60;0.50;;;5.50;99.90;;;5.71;100.00;52815.16;5011040;28;20438;-68
2021/01/19 08:23:11;;;;;;;0.60;0.50;;;5.40;99.90;;;5.66;100.00;51509.91;5011229;28;20482;-70
2021/01/19 08:25:39;;;;;;;0.60;0.60;;;5.40;99.90;;;5.62;100.00;50856.63;5010967;28;20816;-71
2021/01/19 08:28:08;;;;;;;0.60;0.50;;;5.40;99.90;;;5.67;100.00;51185.75;5010294;28;20462;-70
2021/01/19 08:30:39;;;;;;;0.90;0.90;;;5.30;99.90;;;5.62;100.00;50206.72;5011978;28;20790;-70
2021/01/19 08:33:07;;;;;;;0.60;0.50;;;5.30;99.90;;;5.60;100.00;48905.53;5004469;28;20949;-69
2021/01/19 08:35:38;;;;;;;0.80;0.80;;;5.30;99.90;;;5.70;100.00;48264.69;5007573;28;20438;-70
2021/01/19 08:38:06;;;;;;;0.60;0.50;;;5.40;99.90;;;5.69;100.00;47289.66;5028404;28;20441;-70
2021/01/19 08:40:36;;;;;;;0.60;0.50;;;5.40;99.90;;;5.73;100.00;45994.50;5012688;28;20484;-70
2021/01/19 08:43:06;;;;;;;0.60;0.60;;;5.40;99.90;;;5.69;100.00;44368.81;5015992;28;20429;-69
2021/01/19 08:45:40;;;;;;;0.60;0.50;;;5.40;99.90;;;5.66;100.00;43717.69;5015582;28;20460;-70
2021/01/19 08:48:10;;;;;;;0.60;0.50;;;5.40;99.90;;;5.71;100.00;42424.13;5015537;28;20464;-72
2021/01/19 08:50:42;;;;;;;0.60;0.60;;;5.40;99.90;;;5.64;100.00;41122.28;5007978;28;20484;-69
2021/01/19 08:53:12;;;;;;;0.60;0.50;;;5.30;99.90;;;5.70;100.00;40155.00;5030967;28;20446;-71
2021/01/19 08:55:44;;;;;;;0.60;0.53;;;5.40;99.90;;;5.67;100.00;39181.00;5016025;28;20430;-70
2021/01/19 08:58:19;;;;;;;0.60;0.60;;;5.40;99.90;;;5.74;100.00;38862.09;5014893;28;20438;-71
2021/01/19 09:00:46;;;;;;;0.60;0.50;;;5.30;99.90;;;5.65;100.00;37560.56;5010521;28;20434;-70
2021/01/19 09:03:15;;;;;;;2.63;2.43;;;5.30;99.90;;;5.63;100.00;36499.72;5005674;28;20438;-71
2021/01/19 09:06:03;;;;;;;0.60;0.60;;;5.30;99.90;;;5.58;100.00;34530.19;5007279;28;20792;-71
2021/01/19 09:08:32;;;;;;;0.60;0.50;;;5.30;99.90;;;5.61;100.00;34110.19;5015675;28;20430;-70
2021/01/19 09:11:06;;;;;;;0.60;0.50;;;5.40;99.90;;;5.65;100.00;32723.44;5015298;28;20498;-72
2021/01/19 09:13:48;;;;;;;0.60;0.50;;;5.30;99.90;;;5.65;100.00;32392.63;5014660;28;20469;-70
2021/01/19 09:16:23;;;;;;;0.60;0.60;;;5.30;99.90;;;5.60;100.00;30536.50;5007070;28;20521;-69
2021/01/19 09:18:55;;;;;;;0.60;0.50;;;5.30;99.90;;;5.68;100.00;29892.78;5014723;28;20429;-70
2021/01/19 09:21:23;;;;;;;0.60;0.50;;;5.30;99.90;;;5.58;100.00;28858.25;5004377;28;20465;-70
2021/01/19 09:23:51;;;;;;;0.60;0.50;;;5.30;99.90;;;5.67;100.00;28322.81;5010555;28;20446;-69
2021/01/19 09:26:18;;;;;;;0.60;0.60;;;5.20;99.90;;;5.67;100.00;26981.56;5012788;28;20544;-69
2021/01/19 09:28:45;;;;;;;0.60;0.50;;;5.30;99.90;;;5.55;100.00;25685.06;5009185;28;20593;-70
2021/01/19 09:31:15;;;;;;;0.60;0.60;;;5.20;99.90;;;5.55;100.00;24423.19;5000284;28;20422;-70
2021/01/19 09:33:44;;;;;;;0.60;0.50;;;5.20;99.90;;;5.66;100.00;24410.47;5012242;28;20430;-69
2021/01/19 09:36:14;;;;;;;0.60;0.50;;;5.20;99.90;;;5.60;100.00;23334.56;5014106;28;20441;-70
2021/01/19 09:38:43;;;;;;;0.60;0.50;;;5.20;99.90;;;5.57;100.00;22286.09;5008252;28;20560;-69
2021/01/19 09:41:18;;;;;;;0.60;0.50;;;5.20;99.90;;;5.52;100.00;21337.91;5013302;28;20430;-70
2021/01/19 09:43:49;;;;;;;0.60;0.50;;;5.20;99.90;;;5.51;100.00;20041.66;5013539;28;20504;-69
2021/01/19 09:46:21;;;;;;;0.60;0.60;;;5.20;99.90;;;5.58;100.00;20041.94;5012984;28;20529;-70
2021/01/19 09:48:50;;;;;;;0.60;0.50;;;5.20;99.90;;;5.53;100.00;18868.19;5008028;28;20789;-70
2021/01/19 09:51:25;;;;;;;0.60;0.50;;;5.20;99.90;;;5.54;100.00;17867.78;5003940;28;20469;-69
2021/01/19 09:53:54;;;;;;;0.60;0.50;;;5.20;99.90;;;5.61;100.00;17384.97;5014209;28;20418;-70
2021/01/19 09:56:22;;;;;;;0.60;0.50;;;5.20;99.90;;;5.51;100.00;15688.28;5013425;28;20414;-70
2021/01/19 09:59:00;;;;;;;0.60;0.50;;;5.20;99.90;;;5.65;100.00;14931.31;5013264;28;20953;-70
2021/01/19 10:01:27;;;;;;;0.60;0.50;;;5.20;99.90;;;5.63;100.00;13536.91;4993651;28;20419;-70
2021/01/19 10:03:55;;;;;;;0.60;0.50;;;5.20;99.90;;;5.81;100.00;12801.28;4996289;28;20481;-71
2021/01/19 10:06:25;;;;;;;0.60;0.50;;;5.20;99.90;;;5.72;100.00;11641.75;4994801;28;20471;-71
2021/01/19 10:08:53;;;;;;;0.60;0.50;;;5.30;99.90;;;5.82;100.00;10622.84;4994870;28;20446;-70
2021/01/19 10:11:32;;;;;;;0.60;0.60;;;5.30;99.90;;;5.93;100.00;9940.28;4994432;28;20434;-71
2021/01/19 10:14:10;;;;;;;0.60;0.50;;;5.40;99.90;;;5.96;100.00;8387.88;5002879;28;20465;-70
2021/01/19 10:16:44;;;;;;;0.60;0.50;;;5.40;99.90;;;6.00;100.00;7786.75;5002710;28;20418;-70
2021/01/19 10:19:19;;;;;;;0.60;0.50;;;5.40;99.90;;;6.03;100.00;6761.69;5012749;28;20818;-70
2021/01/19 10:21:54;;;;;;;0.60;0.50;;;5.50;99.90;;;6.00;100.00;5766.06;5012739;28;20533;-71
2021/01/19 10:24:22;;;;;;;0.60;0.60;;;5.50;99.90;;;5.97;100.00;4487.56;5013627;28;20420;-71
2021/01/19 10:27:09;;;;;;;0.60;0.50;;;5.50;99.90;;;6.10;100.00;3126.41;4994447;28;20883;-70
2021/01/19 10:29:39;;;;;;;0.60;0.50;;;5.60;99.90;;;6.17;100.00;2350.81;5011939;28;20466;-71
2021/01/19 10:32:11;;;;;;;0.60;0.50;;;5.60;99.90;;;6.19;100.00;1219.16;5014292;28;20436;-71
2021/01/19 10:34:44;;;;;;;0.60;0.50;;;5.70;99.90;;;6.15;100.00;-137.81;5012747;28;20434;-71
2021/01/19 10:37:12;;;;;;;0.60;0.50;;;5.70;99.90;;;6.19;100.00;-993.38;5010932;28;20429;-70
2021/01/19 10:39:47;;;;;;;0.60;0.53;;;5.70;99.90;;;6.29;100.00;-1858.63;5013836;28;20517;-71
2021/01/19 10:42:26;;;;;;;0.60;0.50;;;5.80;99.90;;;6.28;100.00;-2619.09;5013466;28;20818;-71
2021/01/19 10:44:55;;;;;;;0.60;0.50;;;5.80;99.90;;;6.37;100.00;-2839.03;5013937;28;20456;-69
2021/01/19 10:47:22;;;;;;;0.60;0.60;;;5.80;99.90;;;6.35;100.00;-3374.28;4997222;28;20815;-70